Titan — ZCED2 — position and weather

sailwx.info

Track history (hours):
 
Tides and Currents Weather Stations Pressure Air Temp Water Temp Dewpoint Dewpoint Depression Visibility Wind Speed Wind Dir Waves Ship Positions

Titan

Last reported at 2017-Jun-26 11:20 UTC. Time now 2017-Jun-28 00:15 UTC.
Position N 43°27' E 006°59'.

Length 80 m; draft 3.5 m.

Type: Pleasure craft. MMSI: 310598000.

Date/timePositionNaut miles runAvg speedWind from/ knotsBaromVisibWave heightAir tempDewpointWater temp
2017-Jun-26 11:20N 43°27' E 006°59'413.8
2017-Jun-26 11:01N 43°29' E 007°04'4 0.3
2017-Jun-25 21:38N 43°33' E 007°07'0 0.0
2017-Jun-25 21:29N 43°33' E 007°07'1 0.7
2017-Jun-25 19:23N 43°32' E 007°08'1 0.0
2017-Jun-24 09:28N 43°32' E 007°10'613.2
2017-Jun-24 09:00N 43°27' E 007°05'713.2
2017-Jun-24 08:27N 43°21' E 007°00'25513.3
2017-Jun-23 13:18N 40°15' E 003°05'413.0
2017-Jun-23 13:00N 40°13' E 003°02'612.9
2017-Jun-23 12:30N 40°08' E 002°56'612.9
2017-Jun-23 12:01N 40°03' E 002°50'713.2
2017-Jun-23 11:30N 39°58' E 002°44'713.3
2017-Jun-23 11:00N 39°53' E 002°39'713.2
2017-Jun-23 10:31N 39°49' E 002°33'612.7
2017-Jun-23 10:00N 39°44' E 002°27'612.8
2017-Jun-23 09:30N 39°39' E 002°21'712.3
2017-Jun-23 08:58N 39°34' E 002°17'613.2
2017-Jun-23 08:30N 39°30' E 002°23'  
Track history (hours):
 
Tides and Currents Weather Stations Pressure Air Temp Water Temp Dewpoint Dewpoint Depression Visibility Wind Speed Wind Dir Waves Ship Positions

Titan

Last reported at 2017-Jun-26 11:20 UTC. Time now 2017-Jun-28 00:15 UTC.
Position N 43°27' E 006°59'.

Length 80 m; draft 3.5 m.

Type: Pleasure craft. MMSI: 310598000.

Date/timePositionNaut miles runAvg speedWind from/ knotsBaromVisibWave heightAir tempDewpointWater temp
2017-Jun-26 11:20N 43°27' E 006°59'413.8
2017-Jun-26 11:01N 43°29' E 007°04'4 0.3
2017-Jun-25 21:38N 43°33' E 007°07'0 0.0
2017-Jun-25 21:29N 43°33' E 007°07'1 0.7
2017-Jun-25 19:23N 43°32' E 007°08'1 0.0
2017-Jun-24 09:28N 43°32' E 007°10'613.2
2017-Jun-24 09:00N 43°27' E 007°05'713.2
2017-Jun-24 08:27N 43°21' E 007°00'25513.3
2017-Jun-23 13:18N 40°15' E 003°05'413.0
2017-Jun-23 13:00N 40°13' E 003°02'612.9
2017-Jun-23 12:30N 40°08' E 002°56'612.9
2017-Jun-23 12:01N 40°03' E 002°50'713.2
2017-Jun-23 11:30N 39°58' E 002°44'713.3
2017-Jun-23 11:00N 39°53' E 002°39'713.2
2017-Jun-23 10:31N 39°49' E 002°33'612.7
2017-Jun-23 10:00N 39°44' E 002°27'612.8
2017-Jun-23 09:30N 39°39' E 002°21'712.3
2017-Jun-23 08:58N 39°34' E 002°17'613.2
2017-Jun-23 08:30N 39°30' E 002°23'  

Dump ship's entire track history